createdAt,value
2023-02-04T00:01:19.037Z,8.70
2023-02-04T00:06:20.694Z,8.60
2023-02-04T00:11:22.345Z,8.60
2023-02-04T00:16:23.972Z,8.60
2023-02-04T00:21:25.561Z,8.50
2023-02-04T00:26:27.119Z,8.50
2023-02-04T00:31:28.771Z,8.40
2023-02-04T00:36:30.423Z,8.50
2023-02-04T00:41:32.062Z,8.50
2023-02-04T00:46:33.686Z,8.50
2023-02-04T00:51:35.256Z,8.40
2023-02-04T00:56:36.832Z,8.40
2023-02-04T01:01:38.582Z,8.30
2023-02-04T01:06:40.442Z,8.30
2023-02-04T01:11:42.011Z,8.30
2023-02-04T01:16:43.614Z,8.30
2023-02-04T01:21:45.216Z,8.30
2023-02-04T01:26:46.810Z,8.20
2023-02-04T01:31:48.445Z,8.20
2023-02-04T01:36:50.055Z,8.20
2023-02-04T01:41:51.670Z,8.20
2023-02-04T01:46:53.333Z,8.20
2023-02-04T01:51:54.958Z,8.20
2023-02-04T01:56:56.629Z,8.20
2023-02-04T02:01:58.209Z,8.10
2023-02-04T02:07:02.285Z,8.10
2023-02-04T02:12:04.322Z,8.10
2023-02-04T02:17:06.006Z,8.10
2023-02-04T02:22:13.102Z,8.00
2023-02-04T02:27:14.793Z,8.00
2023-02-04T02:32:18.033Z,8.00
2023-02-04T02:37:19.617Z,8.00
2023-02-04T02:42:21.202Z,8.00
2023-02-04T02:47:23.004Z,7.90
2023-02-04T02:52:24.561Z,7.90
2023-02-04T02:57:26.136Z,7.90
2023-02-04T03:02:27.732Z,7.80
2023-02-04T03:07:29.358Z,7.80
2023-02-04T03:12:30.990Z,7.70
2023-02-04T03:17:32.637Z,7.70
2023-02-04T03:22:34.322Z,7.70
2023-02-04T03:27:35.923Z,7.60
2023-02-04T03:32:37.470Z,7.60
2023-02-04T03:37:39.355Z,7.60
2023-02-04T03:42:41.047Z,7.60
2023-02-04T03:47:42.636Z,7.50
2023-02-04T03:52:45.093Z,7.50
2023-02-04T03:57:46.615Z,7.50
2023-02-04T04:02:48.193Z,7.50
2023-02-04T04:07:49.876Z,7.50
2023-02-04T04:12:51.485Z,7.50
2023-02-04T04:17:53.058Z,7.50
2023-02-04T04:22:54.649Z,7.40
2023-02-04T04:27:56.255Z,7.40
2023-02-04T04:32:57.916Z,7.40
2023-02-04T04:37:59.545Z,7.40
2023-02-04T04:43:01.269Z,7.40
2023-02-04T04:48:02.889Z,7.40
2023-02-04T04:53:04.584Z,7.30
2023-02-04T04:58:07.049Z,7.30
2023-02-04T05:03:08.710Z,7.30
2023-02-04T05:08:16.755Z,7.30
2023-02-04T05:13:18.454Z,7.20
2023-02-04T05:18:20.027Z,7.20
2023-02-04T05:23:21.576Z,7.20
2023-02-04T05:28:23.163Z,7.30
2023-02-04T05:33:24.741Z,7.20
2023-02-04T05:38:26.325Z,7.20
2023-02-04T05:43:27.901Z,7.20
2023-02-04T05:48:29.541Z,7.20
2023-02-04T05:53:31.198Z,7.20
2023-02-04T05:58:35.776Z,7.20
2023-02-04T06:03:37.449Z,7.20
2023-02-04T06:08:39.219Z,7.20
2023-02-04T06:13:40.848Z,7.10
2023-02-04T06:18:42.502Z,7.10
2023-02-04T06:23:44.128Z,7.10
2023-02-04T06:28:46.770Z,7.10
2023-02-04T06:33:48.388Z,7.10
2023-02-04T06:38:50.035Z,7.10
2023-02-04T06:43:51.808Z,7.10
2023-02-04T06:48:53.391Z,7.10
2023-02-04T06:53:54.947Z,7.10
2023-02-04T06:58:56.624Z,7.10
2023-02-04T07:03:58.254Z,7.00
2023-02-04T07:09:04.941Z,7.00
2023-02-04T07:14:06.505Z,7.00
2023-02-04T07:19:08.113Z,7.00
2023-02-04T07:24:09.751Z,7.00
2023-02-04T07:29:17.487Z,7.00
2023-02-04T07:34:23.513Z,7.00
2023-02-04T07:39:25.164Z,7.00
2023-02-04T07:44:28.946Z,7.00
2023-02-04T07:49:30.671Z,7.00
2023-02-04T07:54:33.352Z,7.00
2023-02-04T07:59:34.895Z,7.00
2023-02-04T08:04:37.991Z,7.10
2023-02-04T08:09:39.609Z,7.10
2023-02-04T08:14:41.312Z,7.20
2023-02-04T08:19:42.942Z,7.20
2023-02-04T08:24:44.630Z,7.20
2023-02-04T08:29:47.273Z,7.20
2023-02-04T08:34:51.994Z,7.30
2023-02-04T08:39:53.608Z,7.30
2023-02-04T08:44:55.380Z,7.40
2023-02-04T08:49:58.090Z,7.30
2023-02-04T08:54:59.787Z,7.40
2023-02-04T09:00:01.486Z,7.40
2023-02-04T09:05:03.123Z,7.40
2023-02-04T09:10:06.080Z,7.50
2023-02-04T09:15:07.886Z,7.60
2023-02-04T09:20:10.353Z,7.60
2023-02-04T09:25:12.042Z,7.70
2023-02-04T09:30:13.931Z,7.80
2023-02-04T09:35:15.598Z,7.90
2023-02-04T09:40:17.757Z,7.90
2023-02-04T09:45:29.761Z,8.00
2023-02-04T09:50:35.289Z,8.00
2023-02-04T09:55:41.333Z,8.00
2023-02-04T10:00:44.037Z,8.20
2023-02-04T10:05:46.165Z,8.30
2023-02-04T10:10:48.678Z,8.30
2023-02-04T10:15:50.784Z,8.40
2023-02-04T10:21:15.701Z,8.30
2023-02-04T10:26:17.448Z,8.40
2023-02-04T10:31:29.915Z,8.60
2023-02-04T10:36:32.786Z,8.70
2023-02-04T10:41:38.686Z,8.80
2023-02-04T10:46:41.582Z,8.90
2023-02-04T10:51:43.310Z,8.80
2023-02-04T10:56:46.871Z,8.80
2023-02-04T11:02:13.573Z,8.90
2023-02-04T11:07:16.305Z,8.90
2023-02-04T11:12:36.474Z,8.80
2023-02-04T11:17:38.177Z,8.80
2023-02-04T11:22:45.071Z,8.90
2023-02-04T11:27:46.656Z,8.90
2023-02-04T11:33:05.962Z,9.00
2023-02-04T11:38:22.924Z,9.00
2023-02-04T11:43:24.669Z,8.90
2023-02-04T11:48:26.458Z,8.80
2023-02-04T11:53:31.946Z,8.90
2023-02-04T11:58:33.740Z,8.90
2023-02-04T12:03:45.577Z,9.00
2023-02-04T12:08:47.380Z,9.10
2023-02-04T12:13:50.226Z,9.10
2023-02-04T12:18:52.895Z,9.30
2023-02-04T12:23:54.566Z,9.30
2023-02-04T12:28:56.178Z,9.30
2023-02-04T12:33:57.994Z,9.40
2023-02-04T12:38:59.646Z,9.30
2023-02-04T12:44:01.408Z,9.50
2023-02-04T12:49:03.146Z,9.50
2023-02-04T12:54:04.912Z,9.50
2023-02-04T12:59:06.507Z,9.40
2023-02-04T13:04:08.130Z,9.50
2023-02-04T13:09:09.807Z,9.40
2023-02-04T13:14:11.466Z,9.30
2023-02-04T13:19:13.181Z,9.40
2023-02-04T13:24:14.974Z,9.50
2023-02-04T13:29:18.142Z,9.40
2023-02-04T13:34:19.848Z,9.40
2023-02-04T13:39:22.738Z,9.50
2023-02-04T13:44:24.564Z,9.60
2023-02-04T13:49:27.193Z,9.70
2023-02-04T13:54:28.874Z,9.70
2023-02-04T13:59:32.573Z,9.70
2023-02-04T14:04:35.435Z,9.60
2023-02-04T14:09:38.645Z,9.70
2023-02-04T14:14:41.432Z,9.80
2023-02-04T14:19:45.093Z,9.70
2023-02-04T14:24:47.622Z,9.60
2023-02-04T14:29:49.315Z,9.50
2023-02-04T14:34:59.011Z,9.50
2023-02-04T14:40:21.070Z,9.60
2023-02-04T14:45:22.737Z,9.70
2023-02-04T14:50:27.139Z,9.60
2023-02-04T14:55:29.832Z,9.60
2023-02-04T15:00:33.794Z,9.50
2023-02-04T15:05:58.599Z,9.50
2023-02-04T15:11:11.972Z,9.40
2023-02-04T15:16:25.918Z,9.40
2023-02-04T15:21:53.989Z,9.20
2023-02-04T15:27:08.470Z,9.20
2023-02-04T15:32:40.186Z,9.20
2023-02-04T15:37:43.949Z,9.10
2023-02-04T15:42:45.638Z,9.00
2023-02-04T15:47:56.689Z,8.90
2023-02-04T15:52:58.427Z,8.80
2023-02-04T15:58:01.157Z,8.80
2023-02-04T16:03:05.900Z,8.70
2023-02-04T16:08:07.497Z,8.60
2023-02-04T16:13:09.172Z,8.60
2023-02-04T16:18:10.778Z,8.50
2023-02-04T16:23:12.310Z,8.50
2023-02-04T16:28:17.129Z,8.30
2023-02-04T16:33:18.750Z,8.30
2023-02-04T16:38:22.505Z,8.10
2023-02-04T16:43:24.331Z,8.10
2023-02-04T16:48:28.565Z,8.10
2023-02-04T16:53:30.198Z,8.10
2023-02-04T16:58:34.883Z,8.10
2023-02-04T17:03:36.525Z,8.20
2023-02-04T17:08:38.100Z,8.90
2023-02-04T17:13:43.752Z,9.30
2023-02-04T17:18:48.490Z,9.30
2023-02-04T17:23:55.919Z,9.10
2023-02-04T17:29:00.642Z,9.80
2023-02-04T17:34:03.225Z,10.00
2023-02-04T17:39:05.089Z,9.70
2023-02-04T17:44:06.653Z,9.80
2023-02-04T17:49:08.270Z,9.70
2023-02-04T17:54:11.730Z,9.50
2023-02-04T17:59:13.349Z,9.70
2023-02-04T18:04:16.224Z,9.90
2023-02-04T18:09:18.685Z,9.80
2023-02-04T18:14:22.742Z,10.10
2023-02-04T18:19:28.144Z,10.20
2023-02-04T18:24:44.022Z,10.10
2023-02-04T18:29:48.195Z,10.20
2023-02-04T18:34:51.467Z,10.00
2023-02-04T18:40:16.467Z,10.20
2023-02-04T18:45:29.420Z,10.20
2023-02-04T18:50:32.587Z,10.10
2023-02-04T18:55:40.170Z,9.90
2023-02-04T19:00:43.004Z,10.00
2023-02-04T19:05:51.097Z,9.90
2023-02-04T19:10:54.081Z,9.70
2023-02-04T19:16:00.843Z,10.00
2023-02-04T19:21:15.340Z,10.10
2023-02-04T19:26:27.470Z,9.90
2023-02-04T19:31:34.721Z,9.80
2023-02-04T19:36:37.867Z,9.60
2023-02-04T19:41:42.624Z,9.50
